createdAt,value
2018-09-07T00:02:10.481Z,85.10
2018-09-07T00:04:38.467Z,86.90
2018-09-07T00:07:06.365Z,83.60
2018-09-07T00:09:34.329Z,84.80
2018-09-07T00:12:02.335Z,86.20
2018-09-07T00:14:30.322Z,86.90
2018-09-07T00:16:58.241Z,87.60
2018-09-07T00:19:26.175Z,83.70
2018-09-07T00:21:54.053Z,82.60
2018-09-07T00:24:22.016Z,83.40
2018-09-07T00:26:49.932Z,85.00
2018-09-07T00:29:17.837Z,87.10
2018-09-07T00:31:45.788Z,87.60
2018-09-07T00:34:13.700Z,89.60
2018-09-07T00:36:41.673Z,89.40
2018-09-07T00:39:09.614Z,90.00
2018-09-07T00:41:37.525Z,90.00
2018-09-07T00:44:05.495Z,90.30
2018-09-07T00:46:33.514Z,90.10
2018-09-07T00:49:01.461Z,88.40
2018-09-07T00:51:29.338Z,88.60
2018-09-07T00:53:57.265Z,90.20
2018-09-07T00:56:25.148Z,86.70
2018-09-07T00:58:53.076Z,88.90
2018-09-07T01:01:20.981Z,90.00
2018-09-07T01:03:48.855Z,90.10
2018-09-07T01:06:16.813Z,90.50
2018-09-07T01:08:44.778Z,90.10
2018-09-07T01:11:12.681Z,90.30
2018-09-07T01:13:40.689Z,90.50
2018-09-07T01:16:08.767Z,90.30
2018-09-07T01:18:36.773Z,90.20
2018-09-07T01:21:04.775Z,90.00
2018-09-07T01:23:32.794Z,88.30
2018-09-07T01:26:00.785Z,90.90
2018-09-07T01:28:28.728Z,90.10
2018-09-07T01:30:56.647Z,90.70
2018-09-07T01:33:24.570Z,90.60
2018-09-07T01:35:52.582Z,91.10
2018-09-07T01:38:26.167Z,91.60
2018-09-07T01:40:54.040Z,90.90
2018-09-07T01:43:21.897Z,91.70
2018-09-07T01:45:49.767Z,90.00
2018-09-07T01:48:17.645Z,89.40
2018-09-07T01:50:45.592Z,90.30
2018-09-07T01:53:13.568Z,88.90
2018-09-07T01:55:41.481Z,90.10
2018-09-07T01:58:09.377Z,90.90
2018-09-07T02:00:37.330Z,90.90
2018-09-07T02:03:10.831Z,91.10
2018-09-07T02:05:38.799Z,91.30
2018-09-07T02:08:06.725Z,91.50
2018-09-07T02:10:34.622Z,91.50
2018-09-07T02:13:02.525Z,91.70
2018-09-07T02:15:30.428Z,91.10
2018-09-07T02:17:58.328Z,91.60
2018-09-07T02:20:26.270Z,91.60
2018-09-07T02:22:54.246Z,91.80
2018-09-07T02:25:22.329Z,92.00
2018-09-07T02:27:50.397Z,92.40
2018-09-07T02:30:18.364Z,92.20
2018-09-07T02:32:46.279Z,91.80
2018-09-07T02:35:14.195Z,92.50
2018-09-07T02:37:42.098Z,90.70
2018-09-07T02:40:10.065Z,90.60
2018-09-07T02:42:37.949Z,91.30
2018-09-07T02:45:05.952Z,90.50
2018-09-07T02:47:33.838Z,88.40
2018-09-07T02:50:01.814Z,91.10
2018-09-07T02:52:29.771Z,90.00
2018-09-07T02:54:57.750Z,90.70
2018-09-07T02:57:26.483Z,90.50
2018-09-07T02:59:54.405Z,91.10
2018-09-07T03:02:22.342Z,89.20
2018-09-07T03:04:50.368Z,90.90
2018-09-07T03:07:18.302Z,90.90
2018-09-07T03:09:46.341Z,90.20
2018-09-07T03:12:14.305Z,88.90
2018-09-07T03:14:42.262Z,91.10
2018-09-07T03:17:10.170Z,91.10
2018-09-07T03:19:38.121Z,91.30
2018-09-07T03:22:06.150Z,90.10
2018-09-07T03:24:34.061Z,91.10
2018-09-07T03:27:02.051Z,92.00
2018-09-07T03:29:29.968Z,91.90
2018-09-07T03:31:57.873Z,91.10
2018-09-07T03:34:25.907Z,90.60
2018-09-07T03:36:53.829Z,91.90
2018-09-07T03:39:21.764Z,90.20
2018-09-07T03:41:50.265Z,91.90
2018-09-07T03:44:18.234Z,90.30
2018-09-07T03:46:46.214Z,91.50
2018-09-07T03:49:14.130Z,91.20
2018-09-07T03:51:42.096Z,92.10
2018-09-07T03:54:09.987Z,92.00
2018-09-07T03:56:37.938Z,92.30
2018-09-07T03:59:05.892Z,91.30
2018-09-07T04:01:33.986Z,92.30
2018-09-07T04:04:01.964Z,90.70
2018-09-07T04:06:29.969Z,90.10
2018-09-07T04:08:57.896Z,91.70
2018-09-07T04:11:25.949Z,90.50
2018-09-07T04:13:53.894Z,91.70
2018-09-07T04:16:21.843Z,92.00
2018-09-07T04:18:49.814Z,91.30
2018-09-07T04:21:17.765Z,92.10
2018-09-07T04:23:45.841Z,92.10
2018-09-07T04:26:13.879Z,91.80
2018-09-07T04:28:41.885Z,92.10
2018-09-07T04:31:09.862Z,92.60
2018-09-07T04:33:37.822Z,91.90
2018-09-07T04:36:05.836Z,92.20
2018-09-07T04:38:33.841Z,92.60
2018-09-07T04:41:01.801Z,91.70
2018-09-07T04:43:29.783Z,92.80
2018-09-07T04:45:57.783Z,93.10
2018-09-07T04:48:25.823Z,92.60
2018-09-07T04:50:53.673Z,93.40
2018-09-07T04:53:21.626Z,92.30
2018-09-07T04:55:49.590Z,92.30
2018-09-07T04:58:17.617Z,92.90
2018-09-07T05:00:45.689Z,93.00
2018-09-07T05:03:13.685Z,92.70
2018-09-07T05:05:41.676Z,93.30
2018-09-07T05:08:09.619Z,93.80
2018-09-07T05:10:37.699Z,93.70
2018-09-07T05:13:05.886Z,94.10
2018-09-07T05:15:33.893Z,94.30
2018-09-07T05:18:01.880Z,94.30
2018-09-07T05:20:29.949Z,94.20
2018-09-07T05:22:57.973Z,94.00
2018-09-07T05:25:25.928Z,93.40
2018-09-07T05:27:53.975Z,92.80
2018-09-07T05:30:21.998Z,93.80
2018-09-07T05:32:49.923Z,93.30
2018-09-07T05:35:17.957Z,93.60
2018-09-07T05:37:45.989Z,94.20
2018-09-07T05:40:14.044Z,94.10
2018-09-07T05:42:42.091Z,94.40
2018-09-07T05:45:10.002Z,94.30
2018-09-07T05:47:37.920Z,94.50
2018-09-07T05:50:05.929Z,93.70
2018-09-07T05:52:33.943Z,94.10
2018-09-07T05:55:01.875Z,94.40
2018-09-07T05:57:29.813Z,94.90
2018-09-07T05:59:57.741Z,95.20
2018-09-07T06:02:25.710Z,94.30
2018-09-07T06:04:53.624Z,95.00
2018-09-07T06:07:21.573Z,94.00
2018-09-07T06:09:49.516Z,93.20
2018-09-07T06:12:17.531Z,94.40
2018-09-07T06:14:45.530Z,93.90
2018-09-07T06:17:13.565Z,93.90
2018-09-07T06:19:41.528Z,93.20
2018-09-07T06:22:09.636Z,92.40
2018-09-07T06:24:37.519Z,91.90
2018-09-07T06:27:05.513Z,92.30
2018-09-07T06:29:33.473Z,91.90
2018-09-07T06:32:01.684Z,91.60
2018-09-07T06:34:29.675Z,91.60
2018-09-07T06:36:57.737Z,93.20
2018-09-07T06:39:25.735Z,93.20
2018-09-07T06:41:53.640Z,93.80
2018-09-07T06:44:21.644Z,92.50
2018-09-07T06:46:49.612Z,93.10
2018-09-07T06:49:17.530Z,92.70
2018-09-07T06:51:49.975Z,93.60
2018-09-07T06:54:17.866Z,92.70
2018-09-07T06:56:45.827Z,92.50
2018-09-07T06:59:13.871Z,91.70
2018-09-07T07:01:41.840Z,93.30
2018-09-07T07:04:09.790Z,92.20
2018-09-07T07:06:44.386Z,93.00
2018-09-07T07:09:12.336Z,92.50
2018-09-07T07:11:40.257Z,92.80
2018-09-07T07:14:08.269Z,94.00
2018-09-07T07:16:36.540Z,92.40
2018-09-07T07:19:04.481Z,93.10
2018-09-07T07:21:32.502Z,91.90
2018-09-07T07:24:00.474Z,92.40
2018-09-07T07:26:28.629Z,91.90
2018-09-07T07:28:56.581Z,91.80
2018-09-07T07:31:24.602Z,91.60
2018-09-07T07:33:52.697Z,91.20
2018-09-07T07:36:20.742Z,91.60
2018-09-07T07:38:48.932Z,90.90
2018-09-07T07:41:16.955Z,90.80
2018-09-07T07:43:44.941Z,92.30
2018-09-07T07:46:13.089Z,92.40
2018-09-07T07:48:41.033Z,92.10
2018-09-07T07:51:08.937Z,91.60
2018-09-07T07:53:36.903Z,91.90
2018-09-07T07:56:05.144Z,91.50
2018-09-07T07:58:33.149Z,91.40
2018-09-07T08:01:01.036Z,91.10
2018-09-07T08:03:28.997Z,90.90
2018-09-07T08:05:57.016Z,90.90
2018-09-07T08:08:25.030Z,90.80
2018-09-07T08:10:52.962Z,90.70
2018-09-07T08:13:20.926Z,90.50
2018-09-07T08:15:48.897Z,90.30
2018-09-07T08:18:16.923Z,90.40
2018-09-07T08:20:45.057Z,90.30
2018-09-07T08:23:12.989Z,91.00
2018-09-07T08:25:40.986Z,91.10
2018-09-07T08:28:08.923Z,90.90
2018-09-07T08:30:36.977Z,90.80
2018-09-07T08:33:05.096Z,90.50
2018-09-07T08:35:33.005Z,90.40
2018-09-07T08:38:01.003Z,90.20
2018-09-07T08:40:29.110Z,90.40
2018-09-07T08:42:57.125Z,90.20
2018-09-07T08:45:25.506Z,90.80
2018-09-07T08:47:53.487Z,90.40
2018-09-07T08:50:25.545Z,90.30
2018-09-07T08:52:55.430Z,90.10
2018-09-07T08:55:23.325Z,91.10
2018-09-07T08:57:51.201Z,91.20
2018-09-07T09:00:19.357Z,90.70
2018-09-07T09:02:47.296Z,90.60
2018-09-07T09:05:15.305Z,90.30
2018-09-07T09:07:43.246Z,90.50
2018-09-07T09:10:11.206Z,90.40
2018-09-07T09:12:39.198Z,90.30
2018-09-07T09:15:07.229Z,90.90
2018-09-07T09:17:35.267Z,90.90
2018-09-07T09:20:03.430Z,90.60
2018-09-07T09:22:31.375Z,90.20
2018-09-07T09:25:00.236Z,90.40
2018-09-07T09:27:28.231Z,90.50
2018-09-07T09:29:56.224Z,90.20
2018-09-07T09:32:24.150Z,90.20
2018-09-07T09:34:52.098Z,90.70
2018-09-07T09:37:20.059Z,91.10
2018-09-07T09:39:48.016Z,91.00
2018-09-07T09:42:16.077Z,91.50
2018-09-07T09:44:44.100Z,91.10
2018-09-07T09:47:12.211Z,91.20
2018-09-07T09:49:40.275Z,90.70
2018-09-07T09:52:08.218Z,90.60
2018-09-07T09:54:36.169Z,90.00
2018-09-07T09:57:04.209Z,90.50
2018-09-07T09:59:32.103Z,90.60
2018-09-07T10:02:05.521Z,88.50
2018-09-07T10:04:34.063Z,88.70
2018-09-07T10:07:02.133Z,88.10
2018-09-07T10:09:30.735Z,88.40
2018-09-07T10:11:58.765Z,87.10
2018-09-07T10:14:27.069Z,87.50
2018-09-07T10:16:54.985Z,86.10
2018-09-07T10:19:22.972Z,86.30
2018-09-07T10:21:50.881Z,86.10
2018-09-07T10:24:18.791Z,87.40
2018-09-07T10:26:46.723Z,86.90
2018-09-07T10:29:14.669Z,85.80
2018-09-07T10:31:42.713Z,85.40
2018-09-07T10:34:10.595Z,85.10
2018-09-07T10:36:38.881Z,84.50
2018-09-07T10:39:08.494Z,84.80
2018-09-07T10:41:36.435Z,84.80
2018-09-07T10:44:04.874Z,84.30
2018-09-07T10:46:32.932Z,84.00
2018-09-07T10:49:00.915Z,84.10
2018-09-07T10:51:28.949Z,84.70
2018-09-07T10:53:57.447Z,85.40
2018-09-07T10:56:25.746Z,85.80
2018-09-07T10:58:54.141Z,81.70
2018-09-07T11:01:22.573Z,83.00
2018-09-07T11:03:50.542Z,83.50
2018-09-07T11:06:18.493Z,83.50
2018-09-07T11:08:46.517Z,81.90
2018-09-07T11:11:14.545Z,82.30
2018-09-07T11:13:43.432Z,82.40
2018-09-07T11:16:11.462Z,78.10
2018-09-07T11:18:39.409Z,75.60
2018-09-07T11:21:07.801Z,76.70
2018-09-07T11:23:36.645Z,75.40
2018-09-07T11:26:04.651Z,73.80
2018-09-07T11:28:32.892Z,73.80
2018-09-07T11:31:00.890Z,76.40
2018-09-07T11:33:28.861Z,76.40
2018-09-07T11:35:56.796Z,75.90
2018-09-07T11:38:24.715Z,75.50
2018-09-07T11:40:52.673Z,76.40
2018-09-07T11:43:20.805Z,74.40
2018-09-07T11:45:48.885Z,75.50
2018-09-07T11:48:16.820Z,75.00
2018-09-07T11:50:44.896Z,73.10
2018-09-07T11:53:12.941Z,71.80
2018-09-07T11:55:40.990Z,73.10
2018-09-07T11:58:09.132Z,71.50
2018-09-07T12:00:37.637Z,71.10
2018-09-07T12:03:05.650Z,73.50
2018-09-07T12:05:33.630Z,73.40
2018-09-07T12:08:01.636Z,73.10
2018-09-07T12:10:29.672Z,71.20
2018-09-07T12:12:57.681Z,71.00
2018-09-07T12:15:25.556Z,72.10
2018-09-07T12:17:53.556Z,71.00
2018-09-07T12:20:21.569Z,71.50
2018-09-07T12:22:49.545Z,70.70
2018-09-07T12:25:17.643Z,71.40
2018-09-07T12:27:46.605Z,70.40
2018-09-07T12:30:14.694Z,71.30
2018-09-07T12:32:42.794Z,71.80
2018-09-07T12:35:10.925Z,71.40
2018-09-07T12:37:38.857Z,69.50
2018-09-07T12:40:06.878Z,71.00
2018-09-07T12:42:34.951Z,70.10
2018-09-07T12:45:03.867Z,68.20
2018-09-07T12:47:31.917Z,65.80
2018-09-07T12:49:59.983Z,66.20
2018-09-07T12:52:28.004Z,66.70
2018-09-07T12:54:56.478Z,66.10
2018-09-07T12:57:24.426Z,67.20
2018-09-07T12:59:53.036Z,66.80
2018-09-07T13:02:21.030Z,66.70
2018-09-07T13:04:48.973Z,67.00
2018-09-07T13:07:16.966Z,66.90
2018-09-07T13:09:45.035Z,65.70
2018-09-07T13:12:13.065Z,66.40
2018-09-07T13:14:41.158Z,65.80
2018-09-07T13:17:09.126Z,66.80
2018-09-07T13:19:37.079Z,65.10
2018-09-07T13:22:05.141Z,65.10
2018-09-07T13:24:33.221Z,66.20
2018-09-07T13:27:01.203Z,64.30
2018-09-07T13:29:29.292Z,63.70
2018-09-07T13:31:57.218Z,61.10
2018-09-07T13:34:25.282Z,60.50
2018-09-07T13:36:53.198Z,59.90
2018-09-07T13:39:21.113Z,60.10
2018-09-07T13:41:49.127Z,60.20
2018-09-07T13:44:17.094Z,58.80
2018-09-07T13:46:45.077Z,61.10
2018-09-07T13:49:12.997Z,59.10
2018-09-07T13:51:41.023Z,57.90
2018-09-07T13:54:08.972Z,57.30
2018-09-07T13:56:43.583Z,57.50
2018-09-07T13:59:11.536Z,57.50
2018-09-07T14:01:39.477Z,58.20
2018-09-07T14:04:07.458Z,59.30
2018-09-07T14:06:35.489Z,58.30
2018-09-07T14:09:05.048Z,59.00
2018-09-07T14:11:32.941Z,61.90
2018-09-07T14:14:00.857Z,64.30
2018-09-07T14:16:28.839Z,64.20
2018-09-07T14:18:56.791Z,64.60
2018-09-07T14:21:24.772Z,66.10
2018-09-07T14:23:52.731Z,68.70
2018-09-07T14:26:22.149Z,69.50
2018-09-07T14:28:50.167Z,70.60
2018-09-07T14:31:18.146Z,72.40
2018-09-07T14:33:46.128Z,73.40
2018-09-07T14:36:14.855Z,73.50
2018-09-07T14:38:43.114Z,74.00
2018-09-07T14:41:11.056Z,74.20
2018-09-07T14:43:38.997Z,73.90
2018-09-07T14:46:07.175Z,74.20
2018-09-07T14:48:35.155Z,75.10
2018-09-07T14:51:03.053Z,74.70
2018-09-07T14:53:30.961Z,77.10
2018-09-07T14:55:58.861Z,75.10
2018-09-07T14:58:26.751Z,76.30
2018-09-07T15:00:54.678Z,76.40
2018-09-07T15:03:22.589Z,75.90
2018-09-07T15:05:50.514Z,80.00
2018-09-07T15:08:18.418Z,85.40
2018-09-07T15:10:46.372Z,87.10
2018-09-07T15:13:14.316Z,85.80
2018-09-07T15:15:42.278Z,87.80
2018-09-07T15:18:10.217Z,85.60
2018-09-07T15:20:38.165Z,85.70
2018-09-07T15:23:06.249Z,84.20
2018-09-07T15:25:34.190Z,82.60
2018-09-07T15:28:02.236Z,80.00
2018-09-07T15:30:30.198Z,82.30
2018-09-07T15:32:58.089Z,84.00
2018-09-07T15:35:26.141Z,82.50
2018-09-07T15:37:54.379Z,84.60
2018-09-07T15:40:22.368Z,76.20
2018-09-07T15:42:50.375Z,78.00
2018-09-07T15:45:19.361Z,76.10
2018-09-07T15:47:47.302Z,73.70
2018-09-07T15:50:15.298Z,69.60
2018-09-07T15:52:43.199Z,71.60
2018-09-07T15:55:11.169Z,69.10
2018-09-07T15:57:39.216Z,68.30
2018-09-07T16:00:07.320Z,68.40
2018-09-07T16:02:35.269Z,68.50
2018-09-07T16:05:03.234Z,68.50
2018-09-07T16:07:31.201Z,67.90
2018-09-07T16:09:59.324Z,69.80
2018-09-07T16:12:27.313Z,66.50
2018-09-07T16:14:55.331Z,66.70
2018-09-07T16:17:23.549Z,66.00
2018-09-07T16:19:51.683Z,69.10
2018-09-07T16:22:19.855Z,69.00
2018-09-07T16:24:47.798Z,68.00
2018-09-07T16:27:15.845Z,65.20
2018-09-07T16:29:43.950Z,65.40
2018-09-07T16:32:13.010Z,66.20
2018-09-07T16:34:41.007Z,67.20
2018-09-07T16:37:09.005Z,65.00
2018-09-07T16:39:36.935Z,66.50
2018-09-07T16:42:04.990Z,66.40
2018-09-07T16:44:33.464Z,66.40
2018-09-07T16:47:01.514Z,64.80
2018-09-07T16:49:29.618Z,65.10
2018-09-07T16:51:57.597Z,65.60
2018-09-07T16:54:25.735Z,65.10
2018-09-07T16:56:54.179Z,65.20
2018-09-07T16:59:22.480Z,64.80
2018-09-07T17:01:50.762Z,64.90
2018-09-07T17:04:18.835Z,64.20
2018-09-07T17:06:47.556Z,63.90
2018-09-07T17:09:15.610Z,64.20
2018-09-07T17:11:43.734Z,65.20
2018-09-07T17:14:11.768Z,64.50
2018-09-07T17:16:39.930Z,64.70
2018-09-07T17:19:08.067Z,65.20
2018-09-07T17:21:36.589Z,64.80
2018-09-07T17:24:04.696Z,64.70
2018-09-07T17:26:32.759Z,64.80
2018-09-07T17:29:00.881Z,65.20
2018-09-07T17:31:29.076Z,66.30
2018-09-07T17:33:57.288Z,66.80
2018-09-07T17:36:25.349Z,66.50
2018-09-07T17:38:53.415Z,67.20
2018-09-07T17:41:21.461Z,68.00
2018-09-07T17:43:49.536Z,67.80
2018-09-07T17:46:17.646Z,68.20
2018-09-07T17:48:45.689Z,68.50
2018-09-07T17:51:13.725Z,69.40
2018-09-07T17:53:41.845Z,70.20
2018-09-07T17:56:09.866Z,70.70
2018-09-07T17:58:37.988Z,71.40
2018-09-07T18:01:05.969Z,71.30
2018-09-07T18:03:34.046Z,72.40
2018-09-07T18:06:03.177Z,74.50
2018-09-07T18:08:31.185Z,73.90
2018-09-07T18:10:59.246Z,74.60
2018-09-07T18:13:27.286Z,72.90
2018-09-07T18:15:55.344Z,74.30
2018-09-07T18:18:23.444Z,73.00
2018-09-07T18:20:51.360Z,72.80
2018-09-07T18:23:20.312Z,72.70
2018-09-07T18:25:48.277Z,73.20
2018-09-07T18:28:16.403Z,73.30
2018-09-07T18:30:44.660Z,72.90
2018-09-07T18:33:12.579Z,75.20
2018-09-07T18:35:40.968Z,77.60
2018-09-07T18:38:08.507Z,80.60
2018-09-07T18:40:36.535Z,81.60
2018-09-07T18:43:04.546Z,80.10
2018-09-07T18:45:32.490Z,80.30
2018-09-07T18:48:00.445Z,81.10
2018-09-07T18:50:28.357Z,81.40
2018-09-07T18:52:56.267Z,83.40
2018-09-07T18:55:24.221Z,82.80
2018-09-07T18:57:52.590Z,84.60
2018-09-07T19:00:20.523Z,84.50
2018-09-07T19:02:48.513Z,84.00
2018-09-07T19:05:16.457Z,85.00
2018-09-07T19:07:44.635Z,85.90
2018-09-07T19:10:12.573Z,85.60
2018-09-07T19:12:40.577Z,85.20
2018-09-07T19:15:08.539Z,84.90
2018-09-07T19:17:36.444Z,83.70
2018-09-07T19:20:04.452Z,83.70
2018-09-07T19:22:32.415Z,84.80
2018-09-07T19:25:00.376Z,86.00
2018-09-07T19:27:29.083Z,86.20
2018-09-07T19:29:57.091Z,85.10
2018-09-07T19:32:25.019Z,88.40
2018-09-07T19:34:52.998Z,86.20
2018-09-07T19:37:20.957Z,88.00
2018-09-07T19:39:48.942Z,87.90
2018-09-07T19:42:17.218Z,88.20
2018-09-07T19:44:45.172Z,88.80
2018-09-07T19:47:13.129Z,85.40
2018-09-07T19:49:41.364Z,85.10
2018-09-07T19:52:09.334Z,87.20
2018-09-07T19:54:37.784Z,88.60
2018-09-07T19:57:05.718Z,90.00
2018-09-07T19:59:33.731Z,90.40
2018-09-07T20:02:01.769Z,91.10
2018-09-07T20:04:29.906Z,90.60
2018-09-07T20:06:58.857Z,90.30
2018-09-07T20:09:27.517Z,90.30
2018-09-07T20:11:56.463Z,90.40
2018-09-07T20:14:24.431Z,90.10
2018-09-07T20:16:52.654Z,90.90
2018-09-07T20:19:21.621Z,91.40
2018-09-07T20:21:49.690Z,91.40
2018-09-07T20:24:17.589Z,91.80
2018-09-07T20:26:45.617Z,91.80
2018-09-07T20:29:13.593Z,91.20
2018-09-07T20:31:41.621Z,91.40
2018-09-07T20:34:09.634Z,91.90
2018-09-07T20:36:37.601Z,92.30
2018-09-07T20:39:07.765Z,92.30
2018-09-07T20:41:35.940Z,92.10
2018-09-07T20:44:03.942Z,92.00
2018-09-07T20:46:32.128Z,92.20
2018-09-07T20:49:00.067Z,92.50
2018-09-07T20:51:28.138Z,92.90
2018-09-07T20:53:56.182Z,93.30
2018-09-07T20:56:24.373Z,93.50
2018-09-07T20:58:52.567Z,92.50
2018-09-07T21:01:20.506Z,90.80
2018-09-07T21:03:48.593Z,91.00
2018-09-07T21:06:16.656Z,89.90
2018-09-07T21:08:44.658Z,92.30
2018-09-07T21:11:12.825Z,93.00
2018-09-07T21:13:41.248Z,93.90
2018-09-07T21:16:09.686Z,94.90
2018-09-07T21:18:37.625Z,95.00
2018-09-07T21:21:05.735Z,95.30
2018-09-07T21:23:33.774Z,96.00
2018-09-07T21:26:01.736Z,96.40
2018-09-07T21:28:29.738Z,93.50
2018-09-07T21:30:57.674Z,95.00
2018-09-07T21:33:25.623Z,95.90
2018-09-07T21:35:53.577Z,96.30
2018-09-07T21:38:21.529Z,96.00
2018-09-07T21:40:49.506Z,95.60
2018-09-07T21:43:17.500Z,94.60
2018-09-07T21:45:45.490Z,93.00
2018-09-07T21:48:13.400Z,92.20
2018-09-07T21:50:41.304Z,94.30
2018-09-07T21:53:09.227Z,94.80
2018-09-07T21:55:37.172Z,94.30
2018-09-07T21:58:05.276Z,95.60
2018-09-07T22:00:33.299Z,96.20
2018-09-07T22:03:01.246Z,96.50
2018-09-07T22:05:29.204Z,96.50
2018-09-07T22:08:03.092Z,95.00
2018-09-07T22:10:31.772Z,95.20
2018-09-07T22:12:59.747Z,94.30
2018-09-07T22:15:27.722Z,95.30
2018-09-07T22:17:55.885Z,95.10
2018-09-07T22:20:24.078Z,96.20
2018-09-07T22:22:52.209Z,95.60
2018-09-07T22:25:20.126Z,95.50
2018-09-07T22:27:48.233Z,95.60
2018-09-07T22:30:16.247Z,94.00
2018-09-07T22:32:44.223Z,93.20
2018-09-07T22:35:12.168Z,95.40
2018-09-07T22:37:40.105Z,96.20
2018-09-07T22:40:08.194Z,95.60
2018-09-07T22:42:36.101Z,96.20
2018-09-07T22:45:04.183Z,96.80
2018-09-07T22:47:32.178Z,96.70
2018-09-07T22:50:00.101Z,95.10
2018-09-07T22:52:28.060Z,94.80
2018-09-07T22:54:56.045Z,96.10
2018-09-07T22:57:24.011Z,96.00
2018-09-07T22:59:51.992Z,95.90
2018-09-07T23:02:19.937Z,96.30
2018-09-07T23:04:48.009Z,96.00
2018-09-07T23:07:15.955Z,95.40
2018-09-07T23:09:43.891Z,96.00
2018-09-07T23:12:11.884Z,94.80
2018-09-07T23:14:39.840Z,93.90
2018-09-07T23:17:07.846Z,93.10
2018-09-07T23:19:35.785Z,94.80
2018-09-07T23:22:04.675Z,95.10
2018-09-07T23:24:32.674Z,94.00
2018-09-07T23:27:00.637Z,94.90
2018-09-07T23:29:28.621Z,95.00
2018-09-07T23:31:56.518Z,93.60
2018-09-07T23:34:24.406Z,93.80
2018-09-07T23:36:52.396Z,93.00
2018-09-07T23:39:20.331Z,93.30
2018-09-07T23:41:48.295Z,93.80
2018-09-07T23:44:16.216Z,93.70
2018-09-07T23:46:44.144Z,94.30
2018-09-07T23:49:12.082Z,94.50
2018-09-07T23:51:40.090Z,94.50
2018-09-07T23:54:08.054Z,95.10
2018-09-07T23:56:35.940Z,95.40
2018-09-07T23:59:03.960Z,95.90
